createdAt,value
2023-05-14T00:01:03.858Z,7.47
2023-05-14T00:03:31.227Z,8.35
2023-05-14T00:05:58.257Z,7.97
2023-05-14T00:08:24.971Z,8.30
2023-05-14T00:10:52.048Z,7.30
2023-05-14T00:13:18.701Z,8.30
2023-05-14T00:15:45.418Z,7.75
2023-05-14T00:18:12.338Z,7.28
2023-05-14T00:20:39.099Z,6.90
2023-05-14T00:23:05.758Z,7.78
2023-05-14T00:25:32.499Z,8.20
2023-05-14T00:27:59.143Z,8.23
2023-05-14T00:30:25.988Z,8.35
2023-05-14T00:32:52.852Z,8.40
2023-05-14T00:35:21.274Z,8.77
2023-05-14T00:37:47.954Z,7.75
2023-05-14T00:40:14.797Z,8.18
2023-05-14T00:42:41.440Z,7.10
2023-05-14T00:45:08.623Z,8.13
2023-05-14T00:47:36.306Z,8.05
2023-05-14T00:50:04.413Z,7.93
2023-05-14T00:52:32.090Z,8.00
2023-05-14T00:54:59.355Z,7.63
2023-05-14T00:57:26.281Z,8.98
2023-05-14T00:59:53.059Z,8.30
2023-05-14T01:02:19.738Z,8.75
2023-05-14T01:04:46.427Z,9.40
2023-05-14T01:07:31.330Z,9.00
2023-05-14T01:10:16.846Z,9.45
2023-05-14T01:12:57.748Z,9.15
2023-05-14T01:15:30.947Z,9.02
2023-05-14T01:18:09.921Z,9.07
2023-05-14T01:20:36.770Z,9.23
2023-05-14T01:23:03.793Z,9.85
2023-05-14T01:25:31.417Z,9.05
2023-05-14T01:28:13.828Z,8.90
2023-05-14T01:33:13.761Z,8.85
2023-05-14T01:35:41.302Z,8.25
2023-05-14T01:38:11.238Z,9.55
2023-05-14T01:40:38.343Z,10.50
2023-05-14T01:43:05.673Z,8.75
2023-05-14T01:45:36.056Z,8.32
2023-05-14T01:48:04.247Z,9.18
2023-05-14T01:50:30.954Z,8.90
2023-05-14T01:52:57.792Z,7.95
2023-05-14T01:55:24.917Z,8.50
2023-05-14T01:57:52.542Z,8.40
2023-05-14T02:00:20.024Z,8.60
2023-05-14T02:02:46.837Z,7.47
2023-05-14T02:05:13.718Z,8.25
2023-05-14T02:07:40.650Z,8.45
2023-05-14T02:10:08.178Z,8.88
2023-05-14T02:12:34.883Z,8.43
2023-05-14T02:15:02.042Z,8.15
2023-05-14T02:17:28.655Z,9.25
2023-05-14T02:19:55.344Z,8.98
2023-05-14T02:22:22.020Z,8.10
2023-05-14T02:24:49.718Z,8.20
2023-05-14T02:27:16.407Z,8.38
2023-05-14T02:29:43.054Z,8.32
2023-05-14T02:32:10.053Z,8.05
2023-05-14T02:34:36.753Z,8.60
2023-05-14T02:37:03.848Z,9.23
2023-05-14T02:39:30.766Z,8.23
2023-05-14T02:41:57.397Z,9.55
2023-05-14T02:44:24.100Z,9.07
2023-05-14T02:46:50.766Z,9.55
2023-05-14T02:49:17.468Z,9.25
2023-05-14T02:51:44.082Z,9.65
2023-05-14T02:54:10.788Z,10.15
2023-05-14T02:56:37.438Z,10.13
2023-05-14T02:59:04.299Z,9.07
2023-05-14T03:01:31.505Z,8.75
2023-05-14T03:03:58.509Z,8.75
2023-05-14T03:06:25.236Z,9.85
2023-05-14T03:08:51.864Z,10.05
2023-05-14T03:11:18.585Z,10.35
2023-05-14T03:13:45.276Z,11.10
2023-05-14T03:16:12.083Z,9.68
2023-05-14T03:18:39.360Z,10.10
2023-05-14T03:21:06.193Z,12.00
2023-05-14T03:23:34.988Z,10.65
2023-05-14T03:26:02.152Z,10.80
2023-05-14T03:28:28.805Z,10.13
2023-05-14T03:30:55.570Z,10.18
2023-05-14T03:33:22.788Z,10.00
2023-05-14T03:35:49.558Z,9.05
2023-05-14T03:38:16.345Z,9.77
2023-05-14T03:40:44.200Z,10.35
2023-05-14T03:43:11.418Z,10.07
2023-05-14T03:45:38.975Z,9.38
2023-05-14T03:48:06.037Z,10.25
2023-05-14T03:50:32.768Z,9.40
2023-05-14T03:52:59.556Z,10.13
2023-05-14T03:55:26.272Z,9.45
2023-05-14T03:57:52.936Z,9.57
2023-05-14T04:00:19.774Z,9.00
2023-05-14T04:02:46.573Z,9.48
2023-05-14T04:05:13.207Z,9.15
2023-05-14T04:07:39.854Z,9.10
2023-05-14T04:10:07.236Z,9.07
2023-05-14T04:12:33.887Z,8.60
2023-05-14T04:15:00.962Z,8.15
2023-05-14T04:17:27.681Z,8.30
2023-05-14T04:19:54.426Z,8.10
2023-05-14T04:22:21.116Z,8.00
2023-05-14T04:24:47.755Z,8.52
2023-05-14T04:27:21.475Z,8.95
2023-05-14T04:29:51.456Z,8.52
2023-05-14T04:32:19.268Z,8.35
2023-05-14T04:34:47.253Z,9.07
2023-05-14T04:37:13.979Z,7.80
2023-05-14T04:39:40.658Z,8.65
2023-05-14T04:42:07.873Z,9.10
2023-05-14T04:44:35.121Z,9.60
2023-05-14T04:47:02.681Z,8.63
2023-05-14T04:49:29.574Z,8.63
2023-05-14T04:51:56.327Z,9.90
2023-05-14T04:54:23.073Z,8.57
2023-05-14T04:56:51.085Z,9.32
2023-05-14T04:59:17.969Z,9.13
2023-05-14T05:01:45.843Z,9.35
2023-05-14T05:04:12.857Z,9.15
2023-05-14T05:06:39.616Z,8.20
2023-05-14T05:09:06.229Z,8.23
2023-05-14T05:11:32.859Z,8.50
2023-05-14T05:13:59.525Z,9.23
2023-05-14T05:16:26.335Z,8.38
2023-05-14T05:18:53.085Z,8.77
2023-05-14T05:21:19.830Z,8.35
2023-05-14T05:23:46.520Z,8.57
2023-05-14T05:26:13.149Z,7.93
2023-05-14T05:28:39.783Z,8.40
2023-05-14T05:31:06.532Z,9.00
2023-05-14T05:33:33.999Z,7.72
2023-05-14T05:36:00.807Z,7.20
2023-05-14T05:38:27.450Z,7.78
2023-05-14T05:40:54.135Z,7.07
2023-05-14T05:43:20.946Z,7.68
2023-05-14T05:45:47.672Z,7.03
2023-05-14T05:48:14.279Z,8.10
2023-05-14T05:50:41.020Z,7.50
2023-05-14T05:53:07.684Z,7.22
2023-05-14T05:55:34.380Z,6.72
2023-05-14T05:58:00.966Z,6.10
2023-05-14T06:00:27.655Z,7.20
2023-05-14T06:02:54.540Z,6.35
2023-05-14T06:05:21.334Z,6.30
2023-05-14T06:07:48.105Z,5.68
2023-05-14T06:10:14.778Z,5.78
2023-05-14T06:12:41.483Z,6.18
2023-05-14T06:15:08.596Z,6.60
2023-05-14T06:17:35.380Z,6.15
2023-05-14T06:20:02.124Z,6.25
2023-05-14T06:22:28.779Z,6.45
2023-05-14T06:24:55.433Z,6.45
2023-05-14T06:27:22.234Z,7.00
2023-05-14T06:29:48.894Z,8.07
2023-05-14T06:32:15.879Z,6.70
2023-05-14T06:34:42.947Z,6.53
2023-05-14T06:37:10.438Z,6.32
2023-05-14T06:39:37.997Z,6.97
2023-05-14T06:42:05.277Z,6.57
2023-05-14T06:44:32.027Z,6.65
2023-05-14T06:46:58.674Z,7.07
2023-05-14T06:49:25.388Z,6.45
2023-05-14T06:51:52.323Z,6.38
2023-05-14T06:54:20.441Z,7.35
2023-05-14T06:56:47.158Z,6.68
2023-05-14T06:59:13.910Z,6.90
2023-05-14T07:01:40.987Z,6.10
2023-05-14T07:04:07.959Z,6.68
2023-05-14T07:06:34.799Z,6.20
2023-05-14T07:09:01.932Z,6.85
2023-05-14T07:11:28.672Z,7.03
2023-05-14T07:13:55.502Z,7.18
2023-05-14T07:16:22.178Z,6.65
2023-05-14T07:18:48.967Z,6.03
2023-05-14T07:21:15.621Z,6.35
2023-05-14T07:23:42.267Z,6.50
2023-05-14T07:26:09.015Z,6.10
2023-05-14T07:28:35.748Z,5.82
2023-05-14T07:31:04.861Z,6.57
2023-05-14T07:33:31.665Z,6.35
2023-05-14T07:35:58.564Z,6.38
2023-05-14T07:38:25.276Z,6.20
2023-05-14T07:40:52.053Z,5.82
2023-05-14T07:43:18.761Z,5.88
2023-05-14T07:45:45.572Z,6.00
2023-05-14T07:48:12.530Z,6.10
2023-05-14T07:50:39.501Z,6.28
2023-05-14T07:53:06.212Z,6.38
2023-05-14T07:55:32.926Z,6.38
2023-05-14T07:57:59.654Z,6.38
2023-05-14T08:00:26.733Z,6.13
2023-05-14T08:02:54.953Z,6.10
2023-05-14T08:05:21.830Z,6.45
2023-05-14T08:07:48.473Z,5.75
2023-05-14T08:10:15.140Z,5.80
2023-05-14T08:12:42.891Z,6.80
2023-05-14T08:15:10.162Z,6.30
2023-05-14T08:17:36.915Z,6.30
2023-05-14T08:20:06.209Z,5.55
2023-05-14T08:22:32.860Z,5.82
2023-05-14T08:25:00.987Z,5.82
2023-05-14T08:27:28.200Z,5.68
2023-05-14T08:29:54.825Z,5.18
2023-05-14T08:32:23.821Z,5.78
2023-05-14T08:34:51.507Z,5.22
2023-05-14T08:37:18.209Z,5.70
2023-05-14T08:39:44.939Z,5.20
2023-05-14T08:42:13.705Z,5.13
2023-05-14T08:44:48.901Z,5.57
2023-05-14T08:47:17.894Z,5.13
2023-05-14T08:49:47.529Z,5.97
2023-05-14T08:52:16.162Z,5.63
2023-05-14T08:54:43.352Z,5.20
2023-05-14T08:57:11.147Z,5.65
2023-05-14T08:59:37.969Z,4.93
2023-05-14T09:02:06.702Z,5.40
2023-05-14T09:04:34.522Z,5.22
2023-05-14T09:07:02.727Z,5.65
2023-05-14T09:09:29.961Z,5.90
2023-05-14T09:11:56.649Z,5.82
2023-05-14T09:14:24.075Z,5.03
2023-05-14T09:16:51.885Z,5.10
2023-05-14T09:19:19.903Z,5.80
2023-05-14T09:21:48.186Z,4.80
2023-05-14T09:24:22.341Z,6.00
2023-05-14T09:26:54.658Z,4.78
2023-05-14T09:29:21.429Z,5.32
2023-05-14T09:31:51.548Z,4.72
2023-05-14T09:34:32.727Z,4.93
2023-05-14T09:37:04.584Z,4.95
2023-05-14T09:39:34.280Z,4.60
2023-05-14T09:42:01.219Z,4.57
2023-05-14T09:44:28.116Z,3.92
2023-05-14T09:46:55.898Z,4.25
2023-05-14T09:49:23.050Z,3.42
2023-05-14T09:51:50.340Z,3.42
2023-05-14T09:54:17.480Z,3.90
2023-05-14T09:56:44.814Z,3.70
2023-05-14T09:59:11.588Z,3.95
2023-05-14T10:01:38.608Z,3.60
2023-05-14T10:04:07.654Z,4.32
2023-05-14T10:06:38.248Z,3.85
2023-05-14T10:09:08.458Z,4.35
2023-05-14T10:11:38.253Z,3.60
2023-05-14T10:14:18.432Z,3.25
2023-05-14T10:16:51.240Z,5.03
2023-05-14T10:19:20.803Z,3.30
2023-05-14T10:22:04.255Z,3.38
2023-05-14T10:24:32.352Z,3.40
2023-05-14T10:26:59.055Z,4.10
2023-05-14T10:29:35.858Z,3.85
2023-05-14T10:32:09.785Z,3.92
2023-05-14T10:34:42.564Z,3.88
2023-05-14T10:37:17.520Z,3.53
2023-05-14T10:39:52.343Z,4.20
2023-05-14T10:42:35.282Z,4.47
2023-05-14T10:45:07.303Z,4.20
2023-05-14T10:50:07.517Z,4.00
2023-05-14T10:52:35.388Z,3.97
2023-05-14T10:55:10.227Z,4.32
2023-05-14T10:57:39.054Z,3.92
2023-05-14T11:00:10.733Z,4.38
2023-05-14T11:02:42.175Z,4.22
2023-05-14T11:05:15.447Z,5.10
2023-05-14T11:07:47.851Z,4.00
2023-05-14T11:10:16.960Z,3.95
2023-05-14T11:12:46.376Z,4.13
2023-05-14T11:15:21.651Z,4.18
2023-05-14T11:17:50.227Z,4.50
2023-05-14T11:20:18.215Z,3.85
2023-05-14T11:22:46.077Z,3.95
2023-05-14T11:25:14.485Z,4.97
2023-05-14T11:27:43.742Z,4.20
2023-05-14T11:30:14.416Z,3.60
2023-05-14T11:32:41.951Z,4.45
2023-05-14T11:35:09.098Z,3.92
2023-05-14T11:37:35.832Z,3.20
2023-05-14T11:40:02.721Z,4.05
2023-05-14T11:42:29.386Z,4.25
2023-05-14T11:44:56.600Z,4.10
2023-05-14T11:47:23.244Z,3.65
2023-05-14T11:49:49.965Z,4.05
2023-05-14T11:52:19.523Z,3.72
2023-05-14T11:54:46.645Z,4.38
2023-05-14T11:57:18.812Z,3.78
2023-05-14T11:59:46.090Z,3.70
2023-05-14T12:02:14.518Z,4.45
2023-05-14T12:04:42.725Z,4.43
2023-05-14T12:07:15.577Z,4.70
2023-05-14T12:09:51.114Z,4.18
2023-05-14T12:12:21.254Z,4.18
2023-05-14T12:14:49.148Z,3.78
2023-05-14T12:17:20.982Z,3.25
2023-05-14T12:19:52.287Z,3.45
2023-05-14T12:22:20.653Z,3.78
2023-05-14T12:24:56.838Z,3.50
2023-05-14T12:27:28.517Z,2.90
2023-05-14T12:30:19.093Z,3.33
2023-05-14T12:32:51.511Z,2.97
2023-05-14T12:35:18.866Z,3.03
2023-05-14T12:37:45.987Z,2.80
2023-05-14T12:40:12.988Z,2.60
2023-05-14T12:42:39.866Z,2.95
2023-05-14T12:45:08.567Z,3.30
2023-05-14T12:47:36.264Z,3.00
2023-05-14T12:50:03.983Z,2.60
2023-05-14T12:52:37.520Z,2.33
2023-05-14T12:55:06.824Z,2.00
2023-05-14T12:57:35.078Z,2.40
2023-05-14T13:00:01.933Z,2.17
2023-05-14T13:02:28.616Z,2.47
2023-05-14T13:04:55.292Z,2.50
2023-05-14T13:07:22.053Z,2.83
2023-05-14T13:09:48.718Z,3.20
2023-05-14T13:12:15.587Z,2.92
2023-05-14T13:14:42.344Z,2.90
2023-05-14T13:17:09.166Z,3.45
2023-05-14T13:19:35.909Z,3.60
2023-05-14T13:22:02.548Z,4.00
2023-05-14T13:24:29.207Z,3.72
2023-05-14T13:26:55.884Z,4.07
2023-05-14T13:29:22.770Z,3.60
2023-05-14T13:31:49.513Z,3.90
2023-05-14T13:34:16.354Z,3.90
2023-05-14T13:36:43.588Z,4.05
2023-05-14T13:39:13.552Z,4.53
2023-05-14T13:41:41.156Z,4.10
2023-05-14T13:44:07.993Z,3.65
2023-05-14T13:46:34.828Z,3.95
2023-05-14T13:49:01.633Z,3.85
2023-05-14T13:51:28.292Z,3.72
2023-05-14T13:56:21.697Z,3.58
2023-05-14T13:58:49.198Z,3.60
2023-05-14T14:01:16.135Z,3.80
2023-05-14T14:03:43.063Z,4.45
2023-05-14T14:06:09.787Z,3.50
2023-05-14T14:08:36.438Z,3.35
2023-05-14T14:11:03.154Z,3.97
2023-05-14T14:13:29.889Z,4.00
2023-05-14T14:15:56.782Z,3.78
2023-05-14T14:18:23.557Z,3.85
2023-05-14T14:20:50.665Z,3.70
2023-05-14T14:23:17.379Z,3.90
2023-05-14T14:25:44.127Z,4.05
2023-05-14T14:28:10.845Z,3.92
2023-05-14T14:30:37.644Z,4.07
2023-05-14T14:33:04.656Z,3.90
2023-05-14T14:35:33.380Z,4.50
2023-05-14T14:37:59.993Z,4.00
2023-05-14T14:40:26.806Z,3.80
2023-05-14T14:42:53.715Z,3.80
2023-05-14T14:45:20.396Z,3.60
2023-05-14T14:47:48.894Z,4.47
2023-05-14T14:50:15.590Z,3.95
2023-05-14T14:52:47.887Z,3.67
2023-05-14T14:55:14.699Z,3.97
2023-05-14T14:57:41.593Z,3.53
2023-05-14T15:00:09.336Z,3.83
2023-05-14T15:02:38.365Z,3.50
2023-05-14T15:05:06.007Z,3.83
2023-05-14T15:07:32.933Z,3.88
2023-05-14T15:09:59.897Z,3.42
2023-05-14T15:12:26.580Z,3.47
2023-05-14T15:14:53.254Z,3.28
2023-05-14T15:17:19.937Z,3.13
2023-05-14T15:19:46.642Z,3.40
2023-05-14T15:22:13.471Z,3.92
2023-05-14T15:24:40.322Z,3.17
2023-05-14T15:27:07.026Z,3.47
2023-05-14T15:29:33.752Z,3.10
2023-05-14T15:32:00.592Z,3.35
2023-05-14T15:34:27.351Z,3.20
2023-05-14T15:36:54.095Z,3.20
2023-05-14T15:39:20.922Z,3.38
2023-05-14T15:41:47.715Z,3.08
2023-05-14T15:44:14.431Z,3.55
2023-05-14T15:46:41.179Z,3.53
2023-05-14T15:49:07.950Z,2.92
2023-05-14T15:51:34.842Z,4.05
2023-05-14T15:54:01.478Z,5.30
2023-05-14T15:56:28.116Z,4.05
2023-05-14T15:58:54.761Z,3.50
2023-05-14T16:01:21.522Z,3.95
2023-05-14T16:03:48.357Z,4.53
2023-05-14T16:06:15.103Z,4.10
2023-05-14T16:08:41.855Z,3.53
2023-05-14T16:11:08.764Z,4.63
2023-05-14T16:13:37.754Z,4.00
2023-05-14T16:16:04.895Z,3.78
2023-05-14T16:18:31.708Z,4.63
2023-05-14T16:20:58.612Z,4.80
2023-05-14T16:23:25.433Z,4.13
2023-05-14T16:25:52.072Z,3.65
2023-05-14T16:28:18.814Z,3.72
2023-05-14T16:30:45.571Z,3.83
2023-05-14T16:33:12.296Z,3.95
2023-05-14T16:35:39.409Z,3.97
2023-05-14T16:38:06.174Z,3.72
2023-05-14T16:40:32.926Z,4.50
2023-05-14T16:42:59.651Z,3.80
2023-05-14T16:45:26.444Z,4.00
2023-05-14T16:47:53.400Z,3.92
2023-05-14T16:50:20.386Z,3.63
2023-05-14T16:52:47.076Z,4.13
2023-05-14T16:55:13.777Z,3.72
2023-05-14T16:57:40.686Z,4.32
2023-05-14T17:00:09.515Z,3.78
2023-05-14T17:02:36.340Z,4.05
2023-05-14T17:05:04.013Z,4.22
2023-05-14T17:07:31.443Z,4.75
2023-05-14T17:09:59.998Z,5.60
2023-05-14T17:12:26.958Z,6.60
2023-05-14T17:14:53.635Z,4.50
2023-05-14T17:17:20.472Z,5.05
2023-05-14T17:19:47.259Z,4.10
2023-05-14T17:22:14.068Z,4.28
2023-05-14T17:24:40.889Z,4.75
2023-05-14T17:27:07.753Z,4.13
2023-05-14T17:29:34.521Z,4.00
2023-05-14T17:32:03.424Z,3.97
2023-05-14T17:34:30.538Z,2.90
2023-05-14T17:36:57.396Z,4.40
2023-05-14T17:39:24.148Z,3.25
2023-05-14T17:41:51.206Z,5.70
2023-05-14T17:44:17.885Z,4.95
2023-05-14T17:46:45.826Z,5.82
2023-05-14T17:49:12.686Z,4.45
2023-05-14T17:51:39.351Z,3.85
2023-05-14T17:54:06.025Z,4.10
2023-05-14T17:56:32.717Z,3.25
2023-05-14T17:58:59.851Z,3.05
2023-05-14T18:01:26.583Z,3.28
2023-05-14T18:03:53.387Z,5.30
2023-05-14T18:06:20.079Z,4.38
2023-05-14T18:08:46.817Z,3.75
2023-05-14T18:11:13.466Z,6.22
2023-05-14T18:13:40.091Z,2.90
2023-05-14T18:16:07.539Z,2.75
2023-05-14T18:18:34.459Z,3.17
2023-05-14T18:21:01.162Z,2.45
2023-05-14T18:23:27.796Z,3.25
2023-05-14T18:25:54.605Z,2.92
2023-05-14T18:28:21.478Z,3.35
2023-05-14T18:30:49.219Z,5.07
2023-05-14T18:33:15.974Z,0.10
2023-05-14T18:35:43.725Z,0.10
2023-05-14T18:38:11.803Z,0.10
2023-05-14T18:40:38.630Z,0.10
2023-05-14T18:43:05.388Z,0.10
2023-05-14T18:45:32.061Z,0.10
2023-05-14T18:47:58.825Z,0.10
2023-05-14T18:50:25.518Z,0.10
2023-05-14T18:52:52.175Z,0.10
2023-05-14T18:55:18.848Z,0.10
2023-05-14T18:57:45.942Z,0.10
2023-05-14T19:00:13.266Z,0.10
2023-05-14T19:02:40.710Z,0.10
2023-05-14T19:05:07.937Z,0.10
2023-05-14T19:07:34.636Z,0.10
2023-05-14T19:10:01.341Z,0.10
2023-05-14T19:12:27.998Z,0.10
2023-05-14T19:14:54.651Z,0.10
2023-05-14T19:17:21.515Z,0.10
2023-05-14T19:19:48.168Z,0.10
2023-05-14T19:22:14.884Z,0.08
2023-05-14T19:24:41.604Z,0.10
2023-05-14T19:27:09.143Z,0.10
2023-05-14T19:29:36.929Z,0.10
2023-05-14T19:32:04.630Z,0.10
2023-05-14T19:34:31.600Z,0.10
2023-05-14T19:36:58.381Z,0.10
2023-05-14T19:39:25.133Z,0.10
2023-05-14T19:41:51.826Z,0.10
2023-05-14T19:44:18.531Z,0.10
2023-05-14T19:46:45.523Z,0.10
2023-05-14T19:49:12.477Z,0.10
2023-05-14T19:51:39.445Z,0.10
2023-05-14T19:54:06.789Z,0.10
2023-05-14T19:56:33.702Z,0.10
2023-05-14T19:59:00.400Z,0.10
2023-05-14T20:01:27.419Z,0.10
2023-05-14T20:03:54.153Z,0.10
2023-05-14T20:06:20.885Z,0.00
2023-05-14T20:08:47.658Z,0.10
2023-05-14T20:11:15.618Z,0.10
2023-05-14T20:13:42.354Z,0.10
2023-05-14T20:16:09.170Z,0.10
2023-05-14T20:18:36.251Z,0.10
2023-05-14T20:21:03.820Z,0.10
2023-05-14T20:23:30.605Z,0.10
2023-05-14T20:25:57.243Z,0.10
2023-05-14T20:28:23.960Z,0.10
2023-05-14T20:30:50.760Z,0.10
2023-05-14T20:33:17.614Z,0.10
2023-05-14T20:35:44.396Z,0.10
2023-05-14T20:38:12.717Z,0.10
2023-05-14T20:40:39.758Z,0.10
2023-05-14T20:43:06.448Z,0.10
2023-05-14T20:45:33.269Z,0.10
2023-05-14T20:47:59.953Z,0.10
2023-05-14T20:50:27.981Z,0.10
2023-05-14T20:52:55.594Z,0.10
2023-05-14T20:55:22.867Z,0.10
2023-05-14T20:57:49.896Z,0.10
2023-05-14T21:00:17.109Z,0.10
2023-05-14T21:02:44.012Z,0.10
2023-05-14T21:05:10.960Z,0.10
2023-05-14T21:07:39.334Z,0.10
2023-05-14T21:10:07.749Z,0.10
2023-05-14T21:12:34.454Z,0.10
2023-05-14T21:15:01.171Z,0.10
2023-05-14T21:17:27.820Z,0.10
2023-05-14T21:19:54.485Z,0.10
2023-05-14T21:22:22.170Z,0.00
2023-05-14T21:24:50.819Z,0.10
2023-05-14T21:27:17.837Z,0.10
2023-05-14T21:29:47.292Z,0.10
2023-05-14T21:32:14.110Z,0.10
2023-05-14T21:34:40.846Z,0.10
2023-05-14T21:37:07.528Z,0.10
2023-05-14T21:39:34.366Z,0.10
2023-05-14T21:42:01.082Z,0.10
2023-05-14T21:44:27.794Z,0.10
2023-05-14T21:46:54.605Z,0.10
2023-05-14T21:49:21.279Z,0.10
2023-05-14T21:51:52.839Z,0.10
2023-05-14T21:54:19.706Z,0.10
2023-05-14T21:56:46.564Z,0.10
2023-05-14T21:59:13.277Z,0.10
2023-05-14T22:02:00.699Z,0.10
2023-05-14T22:04:26.681Z,0.10
2023-05-14T22:06:53.381Z,0.10
2023-05-14T22:09:20.146Z,0.10
2023-05-14T22:11:46.811Z,0.10
2023-05-14T22:14:13.531Z,0.10
2023-05-14T22:16:40.296Z,0.10
2023-05-14T22:19:07.310Z,0.10
2023-05-14T22:21:34.025Z,0.10
2023-05-14T22:24:00.623Z,0.10
2023-05-14T22:26:27.265Z,0.10
2023-05-14T22:28:54.016Z,0.10
2023-05-14T22:31:20.884Z,0.10
2023-05-14T22:33:47.625Z,0.10
2023-05-14T22:36:14.297Z,0.10
2023-05-14T22:38:43.659Z,0.10
2023-05-14T22:41:10.900Z,0.10
2023-05-14T22:43:37.662Z,0.10
2023-05-14T22:46:04.534Z,0.10
2023-05-14T22:48:31.216Z,0.05
2023-05-14T22:50:57.837Z,0.10
2023-05-14T22:53:25.367Z,0.10
2023-05-14T22:55:52.253Z,0.10
2023-05-14T22:58:19.001Z,0.10
2023-05-14T23:00:45.799Z,0.10
2023-05-14T23:03:12.497Z,0.10
2023-05-14T23:05:39.126Z,0.10
2023-05-14T23:08:06.411Z,0.10
2023-05-14T23:10:35.190Z,0.73
2023-05-14T23:13:01.842Z,0.47
2023-05-14T23:15:28.547Z,0.10
2023-05-14T23:17:55.412Z,0.10
2023-05-14T23:20:22.151Z,0.10
2023-05-14T23:22:48.809Z,0.10
2023-05-14T23:25:15.533Z,0.10
2023-05-14T23:27:42.314Z,0.10
2023-05-14T23:30:09.561Z,0.10
2023-05-14T23:32:36.348Z,0.10
2023-05-14T23:35:03.277Z,0.10
2023-05-14T23:37:30.052Z,0.10
2023-05-14T23:39:56.877Z,0.10
2023-05-14T23:42:24.742Z,0.10
2023-05-14T23:44:51.397Z,0.10
2023-05-14T23:47:18.056Z,0.10
2023-05-14T23:49:44.831Z,0.10
2023-05-14T23:52:11.554Z,0.10
2023-05-14T23:54:38.841Z,0.10
2023-05-14T23:57:05.839Z,0.10
2023-05-14T23:59:32.642Z,0.10
